< < Back
Terminal Aerodrome Forecast


Current Version              Previous Versions:   1  2  3  4  5  6  7  8  9  

Terminal Aerodrome Forecast

906
FTUS42 KCHS 262333
TAFSAV
TAF
KSAV 262333Z 2700/2724 27010KT P6SM SCT250
     FM270500 36010KT P6SM SCT015 BKN040 BKN080
     FM270900 36008KT P6SM SCT012 BKN020
     FM271400 35007KT P6SM SCT035 BKN250
     FM272100 14008KT P6SM SCT040 BKN150=

Latest METAR

630
SAUS80 KWBC 270900 RRA
MTRSAV
METAR KSAV 270853Z AUTO 01009KT 10SM OVC011 16/14 A2973 RMK AO2 SLP067
T01610139 53003 TSNO $


USA.gov is the U.S. government's official web portal to all federal, state and local government web resources and services.